createdAt,value
2023-02-14T00:01:38.201Z,1.84
2023-02-14T00:04:44.399Z,1.94
2023-02-14T00:07:46.808Z,1.98
2023-02-14T00:10:49.329Z,2.13
2023-02-14T00:14:10.288Z,1.80
2023-02-14T00:17:13.046Z,1.99
2023-02-14T00:20:15.761Z,2.04
2023-02-14T00:23:18.051Z,1.80
2023-02-14T00:26:20.451Z,1.82
2023-02-14T00:29:29.132Z,1.88
2023-02-14T00:32:32.143Z,1.94
2023-02-14T00:36:07.269Z,2.19
2023-02-14T00:39:12.069Z,1.98
2023-02-14T00:42:14.953Z,2.21
2023-02-14T00:45:19.335Z,2.07
2023-02-14T00:48:21.819Z,2.42
2023-02-14T00:51:24.412Z,2.17
2023-02-14T00:54:26.961Z,2.15
2023-02-14T00:57:29.369Z,2.32
2023-02-14T01:00:32.909Z,2.47
2023-02-14T01:03:35.849Z,2.36
2023-02-14T01:06:38.744Z,2.47
2023-02-14T01:09:41.960Z,2.16
2023-02-14T01:12:44.390Z,2.30
2023-02-14T01:15:49.320Z,2.32
2023-02-14T01:18:52.156Z,2.23
2023-02-14T01:21:54.533Z,2.15
2023-02-14T01:24:58.210Z,2.27
2023-02-14T01:28:00.934Z,2.30
2023-02-14T01:31:12.790Z,2.42
2023-02-14T01:34:15.620Z,2.30
2023-02-14T01:37:18.150Z,2.31
2023-02-14T01:40:20.886Z,2.47
2023-02-14T01:43:23.797Z,2.48
2023-02-14T01:46:29.105Z,2.44
2023-02-14T01:49:48.698Z,2.23
2023-02-14T01:52:54.656Z,2.43
2023-02-14T01:56:05.801Z,2.60
2023-02-14T01:59:13.245Z,2.57
2023-02-14T02:02:23.897Z,2.46
2023-02-14T02:05:27.091Z,2.44
2023-02-14T02:08:30.096Z,2.43
2023-02-14T02:11:32.691Z,2.42
2023-02-14T02:14:35.821Z,2.51
2023-02-14T02:17:59.693Z,2.56
2023-02-14T02:21:18.375Z,2.45
2023-02-14T02:24:56.769Z,2.51
2023-02-14T02:28:32.673Z,2.46
2023-02-14T02:31:50.394Z,2.43
2023-02-14T02:35:18.595Z,2.43
2023-02-14T02:38:36.392Z,2.43
2023-02-14T02:41:57.313Z,2.48
2023-02-14T02:45:13.423Z,2.46
2023-02-14T02:48:20.930Z,2.44
2023-02-14T02:51:58.788Z,2.42
2023-02-14T02:55:06.055Z,2.44
2023-02-14T02:58:09.144Z,2.53
2023-02-14T03:01:24.788Z,2.45
2023-02-14T03:04:46.223Z,2.53
2023-02-14T03:07:49.782Z,2.50
2023-02-14T03:10:53.697Z,2.59
2023-02-14T03:14:09.373Z,2.55
2023-02-14T03:17:20.533Z,2.39
2023-02-14T03:20:38.033Z,2.50
2023-02-14T03:23:46.102Z,2.50
2023-02-14T03:26:57.511Z,2.55
2023-02-14T03:30:12.564Z,2.50
2023-02-14T03:33:21.716Z,2.59
2023-02-14T03:36:51.867Z,2.76
2023-02-14T03:40:07.536Z,2.69
2023-02-14T03:43:17.038Z,2.67
2023-02-14T03:46:27.640Z,2.69
2023-02-14T03:49:33.128Z,2.55
2023-02-14T03:52:36.794Z,2.64
2023-02-14T03:56:10.650Z,2.58
2023-02-14T03:59:20.164Z,2.51
2023-02-14T04:02:32.858Z,2.49
2023-02-14T04:05:35.606Z,2.44
2023-02-14T04:08:38.980Z,2.44
2023-02-14T04:11:41.680Z,2.51
2023-02-14T04:14:44.649Z,2.59
2023-02-14T04:18:05.866Z,2.69
2023-02-14T04:21:08.285Z,2.62
2023-02-14T04:24:10.836Z,2.64
2023-02-14T04:27:13.831Z,2.55
2023-02-14T04:30:18.281Z,2.62
2023-02-14T04:33:20.878Z,2.57
2023-02-14T04:36:23.350Z,2.70
2023-02-14T04:39:26.034Z,2.55
2023-02-14T04:42:28.487Z,2.51
2023-02-14T04:45:31.068Z,2.53
2023-02-14T04:48:33.610Z,2.52
2023-02-14T04:51:35.956Z,2.66
2023-02-14T04:54:38.385Z,2.72
2023-02-14T04:57:41.091Z,2.56
2023-02-14T05:00:43.730Z,2.67
2023-02-14T05:03:46.486Z,2.52
2023-02-14T05:06:48.978Z,2.53
2023-02-14T05:09:51.453Z,2.56
2023-02-14T05:12:54.040Z,2.56
2023-02-14T05:15:56.782Z,2.68
2023-02-14T05:18:59.353Z,2.57
2023-02-14T05:22:02.090Z,2.59
2023-02-14T05:25:04.495Z,2.51
2023-02-14T05:28:07.267Z,2.53
2023-02-14T05:31:10.289Z,2.52
2023-02-14T05:34:13.560Z,2.43
2023-02-14T05:37:15.913Z,2.39
2023-02-14T05:40:18.518Z,2.55
2023-02-14T05:43:21.832Z,2.37
2023-02-14T05:46:24.445Z,2.54
2023-02-14T05:49:26.877Z,2.62
2023-02-14T05:52:29.557Z,2.67
2023-02-14T05:55:32.424Z,2.52
2023-02-14T05:58:35.000Z,2.59
2023-02-14T06:01:37.447Z,2.61
2023-02-14T06:04:40.201Z,2.50
2023-02-14T06:07:43.755Z,2.50
2023-02-14T06:10:47.056Z,2.80
2023-02-14T06:13:49.608Z,2.77
2023-02-14T06:16:52.677Z,2.74
2023-02-14T06:19:55.160Z,2.63
2023-02-14T06:22:58.002Z,2.67
2023-02-14T06:26:00.598Z,2.70
2023-02-14T06:29:04.569Z,2.74
2023-02-14T06:32:07.469Z,2.75
2023-02-14T06:35:10.408Z,2.93
2023-02-14T06:38:12.841Z,2.86
2023-02-14T06:41:17.246Z,2.68
2023-02-14T06:44:20.125Z,2.71
2023-02-14T06:47:22.638Z,2.83
2023-02-14T06:50:25.093Z,3.02
2023-02-14T06:53:27.882Z,2.95
2023-02-14T06:56:30.220Z,2.87
2023-02-14T06:59:34.225Z,2.83
2023-02-14T07:02:36.873Z,2.99
2023-02-14T07:05:39.389Z,3.14
2023-02-14T07:08:42.590Z,3.02
2023-02-14T07:11:46.445Z,3.10
2023-02-14T07:14:49.050Z,2.87
2023-02-14T07:17:51.654Z,2.90
2023-02-14T07:20:54.496Z,2.88
2023-02-14T07:23:57.013Z,2.85
2023-02-14T07:26:59.456Z,3.15
2023-02-14T07:30:02.407Z,3.14
2023-02-14T07:33:05.371Z,2.96
2023-02-14T07:36:09.383Z,2.90
2023-02-14T07:39:12.146Z,3.06
2023-02-14T07:42:14.876Z,3.02
2023-02-14T07:45:22.180Z,2.99
2023-02-14T07:48:25.505Z,3.01
2023-02-14T07:51:27.988Z,3.22
2023-02-14T07:54:30.418Z,3.35
2023-02-14T07:57:33.223Z,3.35
2023-02-14T08:00:36.261Z,3.39
2023-02-14T08:03:39.383Z,3.26
2023-02-14T08:06:42.962Z,3.26
2023-02-14T08:09:45.563Z,3.43
2023-02-14T08:13:00.422Z,3.29
2023-02-14T08:16:06.383Z,3.26
2023-02-14T08:19:09.219Z,3.32
2023-02-14T08:22:11.548Z,3.53
2023-02-14T08:25:13.861Z,3.63
2023-02-14T08:28:16.240Z,3.70
2023-02-14T08:31:35.063Z,3.66
2023-02-14T08:34:38.857Z,3.81
2023-02-14T08:37:41.653Z,4.04
2023-02-14T08:40:44.495Z,3.93
2023-02-14T08:43:46.952Z,3.74
2023-02-14T08:46:49.494Z,3.82
2023-02-14T08:49:52.096Z,3.90
2023-02-14T08:52:54.479Z,4.14
2023-02-14T08:55:56.997Z,4.13
2023-02-14T08:58:59.649Z,4.15
2023-02-14T09:02:02.088Z,4.31
2023-02-14T09:05:06.363Z,4.43
2023-02-14T09:08:08.975Z,4.28
2023-02-14T09:11:18.805Z,4.38
2023-02-14T09:14:21.938Z,4.28
2023-02-14T09:17:24.377Z,4.50
2023-02-14T09:20:27.107Z,4.20
2023-02-14T09:23:29.498Z,4.35
2023-02-14T09:26:34.881Z,4.50
2023-02-14T09:29:37.448Z,4.38
2023-02-14T09:32:39.851Z,4.59
2023-02-14T09:36:00.980Z,4.53
2023-02-14T09:39:03.753Z,4.66
2023-02-14T09:42:24.572Z,4.79
2023-02-14T09:45:28.840Z,4.54
2023-02-14T09:48:39.204Z,4.84
2023-02-14T09:51:48.923Z,4.48
2023-02-14T09:54:57.730Z,4.79
2023-02-14T09:58:13.699Z,4.81
2023-02-14T10:01:22.255Z,5.05
2023-02-14T10:04:27.713Z,4.92
2023-02-14T10:07:41.436Z,5.01
2023-02-14T10:10:45.639Z,5.04
2023-02-14T10:13:56.719Z,5.19
2023-02-14T10:17:08.671Z,5.54
2023-02-14T10:20:31.314Z,5.59
2023-02-14T10:23:47.588Z,5.84
2023-02-14T10:26:51.381Z,5.41
2023-02-14T10:29:53.953Z,5.31
2023-02-14T10:33:18.169Z,5.32
2023-02-14T10:36:51.836Z,5.41
2023-02-14T10:40:30.080Z,5.57
2023-02-14T10:44:13.613Z,5.42
2023-02-14T10:47:41.657Z,5.27
2023-02-14T10:50:47.949Z,5.28
2023-02-14T10:54:22.169Z,5.47
2023-02-14T10:57:38.273Z,5.97
2023-02-14T11:00:48.549Z,6.15
2023-02-14T11:04:03.873Z,6.04
2023-02-14T11:07:13.515Z,6.01
2023-02-14T11:10:16.825Z,5.95
2023-02-14T11:13:36.252Z,6.21
2023-02-14T11:16:38.980Z,6.12
2023-02-14T11:19:41.389Z,5.85
2023-02-14T11:22:43.799Z,5.97
2023-02-14T11:25:51.364Z,6.12
2023-02-14T11:28:57.484Z,6.20
2023-02-14T11:32:11.654Z,6.22
2023-02-14T11:35:24.432Z,6.36
2023-02-14T11:38:35.928Z,6.38
2023-02-14T11:41:52.551Z,6.51
2023-02-14T11:44:56.688Z,6.60
2023-02-14T11:48:25.004Z,6.68
2023-02-14T11:51:42.028Z,6.63
2023-02-14T11:54:49.736Z,6.91
2023-02-14T11:57:52.502Z,6.86
2023-02-14T12:00:55.239Z,6.59
2023-02-14T12:04:00.971Z,6.57
2023-02-14T12:07:14.862Z,6.68
2023-02-14T12:10:24.159Z,6.86
2023-02-14T12:13:27.134Z,7.03
2023-02-14T12:16:41.046Z,6.94
2023-02-14T12:20:15.143Z,7.36
2023-02-14T12:23:38.881Z,7.38
2023-02-14T12:26:58.221Z,6.83
2023-02-14T12:30:12.798Z,6.68
2023-02-14T12:33:19.560Z,6.54
2023-02-14T12:36:40.172Z,6.91
2023-02-14T12:39:54.972Z,6.89
2023-02-14T12:43:21.259Z,7.13
2023-02-14T12:46:49.234Z,7.41
2023-02-14T12:50:28.700Z,7.56
2023-02-14T12:53:59.143Z,7.50
2023-02-14T12:57:27.841Z,7.66
2023-02-14T13:01:04.332Z,7.65
2023-02-14T13:04:15.710Z,7.83
2023-02-14T13:07:27.576Z,7.92
2023-02-14T13:10:57.553Z,8.02
2023-02-14T13:14:08.011Z,7.90
2023-02-14T13:17:19.170Z,7.96
2023-02-14T13:20:21.587Z,8.06
2023-02-14T13:23:40.424Z,7.75
2023-02-14T13:26:45.581Z,8.19
2023-02-14T13:29:51.205Z,7.85
2023-02-14T13:32:54.533Z,7.97
2023-02-14T13:36:02.753Z,8.16
2023-02-14T13:39:05.632Z,8.21
2023-02-14T13:42:08.300Z,8.04
2023-02-14T13:45:35.260Z,8.01
2023-02-14T13:48:39.145Z,8.70
2023-02-14T13:51:48.927Z,8.34
2023-02-14T13:54:51.404Z,7.96
2023-02-14T13:58:04.121Z,8.47
2023-02-14T14:01:34.398Z,8.17
2023-02-14T14:04:38.053Z,7.91
2023-02-14T14:07:40.409Z,7.85
2023-02-14T14:10:59.943Z,7.98
2023-02-14T14:14:04.793Z,8.07
2023-02-14T14:17:20.054Z,7.99
2023-02-14T14:20:23.324Z,7.62
2023-02-14T14:23:40.124Z,7.76
2023-02-14T14:26:59.070Z,7.98
2023-02-14T14:30:04.930Z,7.97
2023-02-14T14:33:29.145Z,7.84
2023-02-14T14:36:31.562Z,7.63
2023-02-14T14:39:35.797Z,7.11
2023-02-14T14:42:38.696Z,7.22
2023-02-14T14:45:41.978Z,7.56
2023-02-14T14:48:51.987Z,7.62
2023-02-14T14:51:56.771Z,7.95
2023-02-14T14:55:00.210Z,7.87
2023-02-14T14:58:06.280Z,8.06
2023-02-14T15:01:14.418Z,7.52
2023-02-14T15:04:27.517Z,6.73
2023-02-14T15:07:36.730Z,6.74
2023-02-14T15:10:39.284Z,6.62
2023-02-14T15:13:50.842Z,6.33
2023-02-14T15:17:06.718Z,6.21
2023-02-14T15:20:18.757Z,6.34
2023-02-14T15:23:24.894Z,6.29
2023-02-14T15:26:38.092Z,6.17
2023-02-14T15:29:40.503Z,6.07
2023-02-14T15:32:43.072Z,5.86
2023-02-14T15:35:45.630Z,5.29
2023-02-14T15:38:48.289Z,5.18
2023-02-14T15:41:54.187Z,5.18
2023-02-14T15:45:22.818Z,5.08
2023-02-14T15:48:29.698Z,4.86
2023-02-14T15:51:33.552Z,4.66
2023-02-14T15:54:45.037Z,4.48
2023-02-14T15:57:55.217Z,4.42
2023-02-14T16:00:57.910Z,4.26
2023-02-14T16:04:03.529Z,4.13
2023-02-14T16:07:25.672Z,4.13
2023-02-14T16:10:38.666Z,4.14
2023-02-14T16:13:43.633Z,4.22
2023-02-14T16:17:24.825Z,3.89
2023-02-14T16:20:31.846Z,3.88
2023-02-14T16:23:37.027Z,3.75
2023-02-14T16:26:44.201Z,3.73
2023-02-14T16:29:46.594Z,3.53
2023-02-14T16:32:53.818Z,3.46
2023-02-14T16:36:01.488Z,3.52
2023-02-14T16:39:05.236Z,3.35
2023-02-14T16:42:14.615Z,3.17
2023-02-14T16:45:19.038Z,3.01
2023-02-14T16:48:21.864Z,3.01
2023-02-14T16:51:34.549Z,3.08
2023-02-14T16:54:37.632Z,2.95
2023-02-14T16:57:42.239Z,3.04
2023-02-14T17:00:44.783Z,2.79
2023-02-14T17:03:47.131Z,2.91
2023-02-14T17:06:55.044Z,2.83
2023-02-14T17:10:04.470Z,2.81
2023-02-14T17:13:07.506Z,2.56
2023-02-14T17:16:11.975Z,2.47
2023-02-14T17:19:14.813Z,2.44
2023-02-14T17:22:17.382Z,2.50
2023-02-14T17:25:19.857Z,2.33
2023-02-14T17:28:22.504Z,2.20
2023-02-14T17:31:25.231Z,2.09
2023-02-14T17:34:32.325Z,2.31
2023-02-14T17:37:35.439Z,2.24
2023-02-14T17:40:38.317Z,1.96
2023-02-14T17:43:41.005Z,2.14
2023-02-14T17:46:43.526Z,2.13
2023-02-14T17:49:49.554Z,2.12
2023-02-14T17:52:56.298Z,1.95
2023-02-14T17:55:59.024Z,1.68
2023-02-14T17:59:01.532Z,1.87
2023-02-14T18:02:04.215Z,1.81
2023-02-14T18:05:07.825Z,1.76
2023-02-14T18:08:10.309Z,1.78
2023-02-14T18:11:14.140Z,1.71
2023-02-14T18:14:16.608Z,1.62
2023-02-14T18:17:19.039Z,1.62
2023-02-14T18:20:21.564Z,1.62
2023-02-14T18:23:24.037Z,1.57
2023-02-14T18:26:27.010Z,1.30
2023-02-14T18:29:29.858Z,1.55
2023-02-14T18:32:32.355Z,1.55
2023-02-14T18:35:35.689Z,1.51
2023-02-14T18:38:38.614Z,1.47
2023-02-14T18:41:41.096Z,1.41
2023-02-14T18:44:45.005Z,1.43
2023-02-14T18:47:47.540Z,1.37
2023-02-14T18:50:51.872Z,1.34
2023-02-14T18:53:56.966Z,1.27
2023-02-14T18:56:59.772Z,1.12
2023-02-14T19:00:06.965Z,1.08
2023-02-14T19:03:09.443Z,1.12
2023-02-14T19:06:13.980Z,1.11
2023-02-14T19:09:18.794Z,1.03
2023-02-14T19:12:21.151Z,0.94
2023-02-14T19:15:23.723Z,0.76
2023-02-14T19:18:26.394Z,0.87
2023-02-14T19:21:31.806Z,0.89
2023-02-14T19:24:34.447Z,0.74
2023-02-14T19:27:37.400Z,0.69
2023-02-14T19:30:39.917Z,0.66
2023-02-14T19:33:44.812Z,0.67
2023-02-14T19:36:47.979Z,0.50
2023-02-14T19:39:51.258Z,0.59
2023-02-14T19:42:53.993Z,0.49
2023-02-14T19:45:56.680Z,0.52
2023-02-14T19:48:59.744Z,0.42
2023-02-14T19:52:06.310Z,0.43
2023-02-14T19:55:21.711Z,0.42
2023-02-14T19:58:26.107Z,0.38
2023-02-14T20:01:32.563Z,0.29
2023-02-14T20:04:34.971Z,0.22
2023-02-14T20:07:37.462Z,0.20
2023-02-14T20:10:40.055Z,0.13
2023-02-14T20:13:42.594Z,0.15
2023-02-14T20:16:46.038Z,0.10
2023-02-14T20:19:49.122Z,0.13
2023-02-14T20:22:51.799Z,0.11
2023-02-14T20:25:54.248Z,0.11
2023-02-14T20:28:59.488Z,0.08
2023-02-14T20:32:04.976Z,0.08
2023-02-14T20:35:07.800Z,0.12
2023-02-14T20:38:10.984Z,0.13
2023-02-14T20:41:16.736Z,0.15
2023-02-14T20:44:21.760Z,0.10
2023-02-14T20:47:24.466Z,0.15
2023-02-14T20:50:26.863Z,0.25
2023-02-14T20:53:29.191Z,0.05
2023-02-14T20:56:31.516Z,0.20
2023-02-14T20:59:33.950Z,0.17
2023-02-14T21:02:36.302Z,0.15
2023-02-14T21:05:38.678Z,0.22
2023-02-14T21:08:42.652Z,0.29
2023-02-14T21:11:44.936Z,0.30
2023-02-14T21:14:47.400Z,0.38
2023-02-14T21:17:49.794Z,0.40
2023-02-14T21:20:52.175Z,0.40
2023-02-14T21:23:54.621Z,0.64
2023-02-14T21:26:57.041Z,0.55
2023-02-14T21:29:59.540Z,0.48
2023-02-14T21:33:02.400Z,0.56
2023-02-14T21:36:15.585Z,0.65
2023-02-14T21:39:19.092Z,0.70
2023-02-14T21:42:21.669Z,0.71
2023-02-14T21:45:42.856Z,0.73
2023-02-14T21:49:04.820Z,0.63
2023-02-14T21:52:07.236Z,0.58
2023-02-14T21:55:09.980Z,0.61
2023-02-14T21:58:15.296Z,0.56
2023-02-14T22:01:21.782Z,0.51
2023-02-14T22:04:24.730Z,0.66
2023-02-14T22:07:30.349Z,0.60
2023-02-14T22:10:32.860Z,0.67
2023-02-14T22:13:35.640Z,0.33
2023-02-14T22:16:38.300Z,0.28
2023-02-14T22:19:41.254Z,0.24
2023-02-14T22:22:43.652Z,0.16
2023-02-14T22:25:46.230Z,0.21
2023-02-14T22:28:49.928Z,0.21
2023-02-14T22:31:52.688Z,0.32
2023-02-14T22:34:55.165Z,0.40
2023-02-14T22:37:57.687Z,0.41
2023-02-14T22:41:06.848Z,0.28
2023-02-14T22:44:09.816Z,0.18
2023-02-14T22:47:12.127Z,0.09
2023-02-14T22:50:14.756Z,0.11
2023-02-14T22:53:17.270Z,0.08
2023-02-14T22:56:28.681Z,0.17
2023-02-14T22:59:32.309Z,0.24
2023-02-14T23:02:35.063Z,0.08
2023-02-14T23:05:37.594Z,-0.02
2023-02-14T23:08:45.038Z,-0.22
2023-02-14T23:11:47.537Z,-0.26
2023-02-14T23:15:08.663Z,-0.07
2023-02-14T23:18:31.808Z,0.01
2023-02-14T23:21:53.173Z,-0.17
2023-02-14T23:24:57.573Z,0.09
2023-02-14T23:27:59.992Z,0.15
2023-02-14T23:31:03.112Z,0.24
2023-02-14T23:34:05.457Z,0.30
2023-02-14T23:37:08.646Z,0.55
2023-02-14T23:40:11.439Z,0.47
2023-02-14T23:43:13.878Z,0.54
2023-02-14T23:46:16.521Z,0.93
2023-02-14T23:49:19.436Z,1.15
2023-02-14T23:52:21.859Z,1.18
2023-02-14T23:55:24.182Z,1.23
2023-02-14T23:58:26.494Z,1.10
